Time;durP1;ratioP1;P1;durP2;ratioP2;P2;SDS_P1;SDS_P2;PMS_P1;PMS_P2;Temp;Humidity;BMP_temperature;BMP_pressure;BME280_temperature;BME280_humidity;BME280_pressure;Samples;Min_cycle;Max_cycle;Signal;HPM_P1;HPM_P2
2023/10/05 00:00:48;;;;;;;9.60;1.27;;;;;;;;;;4931965;28;20269;-70
2023/10/05 00:03:16;;;;;;;5.68;1.42;;;;;;;;;;4935916;28;20307;-70
2023/10/05 00:05:44;;;;;;;6.13;1.17;;;;;;;;;;4929868;28;20066;-64
2023/10/05 00:08:10;;;;;;;6.70;1.42;;;;;;;;;;4939916;28;20062;-63
2023/10/05 00:10:37;;;;;;;8.45;1.60;;;;;;;;;;4932524;28;20059;-67
2023/10/05 00:13:07;;;;;;;4.68;1.05;;;;;;;;;;4941194;28;20059;-70
2023/10/05 00:15:36;;;;;;;7.80;1.27;;;;;;;;;;4938036;28;20078;-71
2023/10/05 00:18:04;;;;;;;5.57;1.42;;;;;;;;;;4936702;28;20059;-66
2023/10/05 00:20:33;;;;;;;6.77;1.63;;;;;;;;;;4935080;28;20066;-66
2023/10/05 00:23:03;;;;;;;6.50;1.55;;;;;;;;;;4940252;28;20113;-67
2023/10/05 00:25:32;;;;;;;6.07;1.23;;;;;;;;;;4939242;28;20074;-64
2023/10/05 00:28:04;;;;;;;5.90;1.63;;;;;;;;;;4935618;28;20058;-68
2023/10/05 00:30:31;;;;;;;4.40;1.13;;;;;;;;;;4935688;28;20133;-65
2023/10/05 00:32:59;;;;;;;8.85;1.40;;;;;;;;;;4939897;28;20094;-67
2023/10/05 00:35:28;;;;;;;7.65;1.58;;;;;;;;;;4939335;28;20085;-68
2023/10/05 00:38:01;;;;;;;;;;;;;;;;;;4940446;28;20130;-65
2023/10/05 00:40:34;;;;;;;9.40;1.58;;;;;;;;;;4938306;28;19958;-71
2023/10/05 00:43:08;;;;;;;2.58;1.02;;;;;;;;;;4938693;28;20062;-65
2023/10/05 00:45:38;;;;;;;7.63;1.63;;;;;;;;;;4936596;28;20134;-65
2023/10/05 00:48:10;;;;;;;7.55;1.30;;;;;;;;;;4925679;28;20187;-64
2023/10/05 00:50:39;;;;;;;5.82;1.50;;;;;;;;;;4933127;28;20169;-62
2023/10/05 00:53:10;;;;;;;6.60;1.20;;;;;;;;;;4938946;28;20063;-64
2023/10/05 00:55:39;;;;;;;13.57;1.65;;;;;;;;;;4938567;28;20055;-64
2023/10/05 00:58:12;;;;;;;3.42;1.10;;;;;;;;;;4927983;28;20055;-70
2023/10/05 01:00:50;;;;;;;6.05;1.13;;;;;;;;;;4930190;28;20055;-66
2023/10/05 01:03:23;;;;;;;5.70;0.98;;;;;;;;;;4940634;28;20051;-66
2023/10/05 01:06:09;;;;;;;4.70;1.08;;;;;;;;;;4936083;28;20059;-66
2023/10/05 01:08:49;;;;;;;4.97;1.52;;;;;;;;;;4928639;28;20069;-63
2023/10/05 01:11:25;;;;;;;4.55;1.40;;;;;;;;;;4938711;28;20051;-66
2023/10/05 01:13:57;;;;;;;6.72;1.15;;;;;;;;;;4939618;28;20337;-68
2023/10/05 01:16:32;;;;;;;8.57;1.13;;;;;;;;;;4926303;28;20083;-70
2023/10/05 01:18:59;;;;;;;8.05;1.50;;;;;;;;;;4933721;28;20062;-65
2023/10/05 01:21:26;;;;;;;10.52;1.50;;;;;;;;;;4941303;28;20137;-69
2023/10/05 01:23:54;;;;;;;5.20;1.30;;;;;;;;;;4938604;28;20063;-67
2023/10/05 01:26:22;;;;;;;8.38;1.52;;;;;;;;;;4934105;28;20071;-71
2023/10/05 01:28:49;;;;;;;8.18;1.35;;;;;;;;;;4932097;28;20069;-70
2023/10/05 01:31:16;;;;;;;4.57;1.45;;;;;;;;;;4937634;28;20062;-66
2023/10/05 01:33:44;;;;;;;9.73;1.40;;;;;;;;;;4939238;28;20082;-68
2023/10/05 01:36:12;;;;;;;8.93;1.40;;;;;;;;;;4938702;28;20110;-64
2023/10/05 01:38:39;;;;;;;3.35;1.00;;;;;;;;;;4918887;28;20059;-65
2023/10/05 01:41:09;;;;;;;7.95;2.00;;;;;;;;;;4939604;28;20087;-66
2023/10/05 01:43:35;;;;;;;9.35;1.45;;;;;;;;;;4938481;28;20082;-64
2023/10/05 01:46:04;;;;;;;2.67;1.08;;;;;;;;;;4936974;28;20059;-69
2023/10/05 01:48:32;;;;;;;6.22;1.40;;;;;;;;;;4927949;28;20087;-70
2023/10/05 01:51:06;;;;;;;6.43;1.25;;;;;;;;;;4935157;28;20130;-65
2023/10/05 01:53:34;;;;;;;5.72;1.40;;;;;;;;;;4937177;28;20126;-65
2023/10/05 01:56:00;;;;;;;8.32;1.55;;;;;;;;;;4937493;28;20085;-67
2023/10/05 01:58:31;;;;;;;9.73;1.50;;;;;;;;;;4934097;28;20094;-66
2023/10/05 02:00:57;;;;;;;7.13;1.42;;;;;;;;;;4937009;28;20090;-70
2023/10/05 02:03:25;;;;;;;7.35;1.45;;;;;;;;;;4935509;28;20308;-63
2023/10/05 02:05:53;;;;;;;9.20;1.63;;;;;;;;;;4924424;28;20078;-69
2023/10/05 02:08:21;;;;;;;5.75;1.83;;;;;;;;;;4938634;28;20059;-67
2023/10/05 02:10:50;;;;;;;4.85;1.02;;;;;;;;;;4937365;28;20151;-66
2023/10/05 02:13:18;;;;;;;;;;;;;;;;;;4933231;28;20086;-66
2023/10/05 02:15:48;;;;;;;9.70;1.20;;;;;;;;;;4938896;28;19937;-65
2023/10/05 02:18:23;;;;;;;4.30;1.23;;;;;;;;;;4937604;28;20069;-67
2023/10/05 02:20:51;;;;;;;7.95;1.50;;;;;;;;;;4936874;28;20058;-64
2023/10/05 02:23:25;;;;;;;6.85;1.70;;;;;;;;;;4936758;28;20063;-68
2023/10/05 02:25:57;;;;;;;7.55;1.67;;;;;;;;;;4933639;28;20063;-67
2023/10/05 02:28:25;;;;;;;6.15;1.20;;;;;;;;;;4937197;28;20067;-66
2023/10/05 02:30:54;;;;;;;8.75;1.60;;;;;;;;;;4941671;28;20067;-63
2023/10/05 02:33:26;;;;;;;4.25;1.63;;;;;;;;;;4933005;28;20125;-66
2023/10/05 02:35:56;;;;;;;6.20;1.50;;;;;;;;;;4936555;28;20129;-65
2023/10/05 02:38:23;;;;;;;5.50;1.30;;;;;;;;;;4946101;28;20047;-67
2023/10/05 02:40:58;;;;;;;3.85;1.33;;;;;;;;;;4940344;29;20062;-69
2023/10/05 02:43:28;;;;;;;9.77;1.42;;;;;;;;;;4933214;28;20126;-65
2023/10/05 02:46:03;;;;;;;4.15;1.13;;;;;;;;;;4922179;28;20058;-64
2023/10/05 02:48:33;;;;;;;8.45;1.27;;;;;;;;;;4941813;28;20063;-65
2023/10/05 02:51:05;;;;;;;8.20;1.42;;;;;;;;;;4940816;28;20302;-68
2023/10/05 02:53:40;;;;;;;3.33;1.63;;;;;;;;;;4936657;28;20059;-66
2023/10/05 02:56:20;;;;;;;10.48;1.65;;;;;;;;;;4937117;28;20058;-68
2023/10/05 02:58:50;;;;;;;6.07;1.70;;;;;;;;;;4942150;28;20067;-64
2023/10/05 03:01:18;;;;;;;6.03;1.50;;;;;;;;;;4934467;28;20353;-63
2023/10/05 03:03:45;;;;;;;9.30;1.52;;;;;;;;;;4941494;28;20090;-64
2023/10/05 03:06:12;;;;;;;6.85;1.60;;;;;;;;;;4959396;28;20062;-64
2023/10/05 03:08:39;;;;;;;6.60;1.50;;;;;;;;;;4963483;28;20066;-66
2023/10/05 03:11:08;;;;;;;4.63;1.42;;;;;;;;;;4958762;28;20078;-65
2023/10/05 03:13:36;;;;;;;8.25;1.50;;;;;;;;;;4958180;28;20073;-65
2023/10/05 03:16:09;;;;;;;4.40;1.30;;;;;;;;;;4955613;28;20062;-67
2023/10/05 03:18:40;;;;;;;6.65;1.33;;;;;;;;;;4960473;28;20121;-66
2023/10/05 03:21:17;;;;;;;9.30;1.55;;;;;;;;;;4959090;28;20067;-65
2023/10/05 03:23:44;;;;;;;8.60;1.55;;;;;;;;;;4949379;28;20066;-68
2023/10/05 03:26:13;;;;;;;4.45;1.52;;;;;;;;;;4962631;28;20066;-66
2023/10/05 03:28:41;;;;;;;6.63;1.48;;;;;;;;;;4959462;28;20067;-66
2023/10/05 03:31:15;;;;;;;10.20;1.75;;;;;;;;;;4952995;28;20054;-66
2023/10/05 03:33:43;;;;;;;9.85;1.60;;;;;;;;;;4964384;28;20082;-66
2023/10/05 03:36:14;;;;;;;5.32;1.98;;;;;;;;;;4937629;28;20105;-65
2023/10/05 03:38:42;;;;;;;8.07;1.65;;;;;;;;;;4958434;28;20055;-61
2023/10/05 03:41:15;;;;;;;5.53;1.43;;;;;;;;;;4956268;28;20073;-67
2023/10/05 03:43:45;;;;;;;7.93;1.77;;;;;;;;;;4957995;28;20065;-67
2023/10/05 03:46:12;;;;;;;5.03;1.75;;;;;;;;;;4956995;28;20060;-70
2023/10/05 03:48:39;;;;;;;8.55;1.83;;;;;;;;;;4960392;28;20066;-63
2023/10/05 03:51:16;;;;;;;10.13;2.00;;;;;;;;;;4957356;28;20147;-63
2023/10/05 03:53:48;;;;;;;6.80;1.52;;;;;;;;;;4946772;28;20073;-65
2023/10/05 03:56:19;;;;;;;10.88;1.75;;;;;;;;;;4939763;28;20055;-64
2023/10/05 03:58:46;;;;;;;10.07;1.85;;;;;;;;;;4961309;28;20065;-63
2023/10/05 04:01:13;;;;;;;9.02;2.08;;;;;;;;;;4953399;28;20129;-64
2023/10/05 04:03:40;;;;;;;12.15;2.38;;;;;;;;;;4949861;28;20130;-64
2023/10/05 04:06:17;;;;;;;6.28;1.30;;;;;;;;;;4938447;28;20062;-62
2023/10/05 04:08:48;;;;;;;5.03;1.55;;;;;;;;;;4946170;28;20054;-62
2023/10/05 04:11:17;;;;;;;10.13;1.85;;;;;;;;;;4935589;28;20086;-63
2023/10/05 04:13:44;;;;;;;6.00;1.45;;;;;;;;;;4963058;28;20063;-65
2023/10/05 04:16:17;;;;;;;5.43;1.70;;;;;;;;;;4954938;28;20066;-66
2023/10/05 04:18:46;;;;;;;7.93;1.77;;;;;;;;;;4958629;28;20074;-65
2023/10/05 04:21:15;;;;;;;5.13;1.67;;;;;;;;;;4951252;28;20075;-68
2023/10/05 04:23:43;;;;;;;11.00;2.08;;;;;;;;;;4959641;28;20151;-63
2023/10/05 04:26:11;;;;;;;9.65;2.35;;;;;;;;;;4953565;28;20046;-67
2023/10/05 04:28:41;;;;;;;11.02;2.83;;;;;;;;;;4958214;28;20114;-65
2023/10/05 04:31:12;;;;;;;11.02;3.38;;;;;;;;;;4957447;28;20070;-65
2023/10/05 04:33:39;;;;;;;8.38;1.80;;;;;;;;;;4957761;28;20102;-65
2023/10/05 04:36:06;;;;;;;7.25;1.73;;;;;;;;;;4956777;28;20055;-65
2023/10/05 04:38:33;;;;;;;8.55;2.08;;;;;;;;;;4947794;28;20054;-64
2023/10/05 04:40:59;;;;;;;9.55;2.17;;;;;;;;;;4959782;28;20110;-67
2023/10/05 04:43:28;;;;;;;12.18;2.60;;;;;;;;;;4950542;28;20067;-68
2023/10/05 04:45:55;;;;;;;10.52;3.67;;;;;;;;;;4953065;28;20082;-64
2023/10/05 04:48:23;;;;;;;12.45;3.15;;;;;;;;;;4959016;28;20093;-62
2023/10/05 04:50:51;;;;;;;13.35;4.97;;;;;;;;;;4942338;28;20065;-67
2023/10/05 04:53:20;;;;;;;12.50;4.27;;;;;;;;;;4936485;28;20061;-64
2023/10/05 04:55:46;;;;;;;9.05;2.28;;;;;;;;;;4943705;28;20078;-68
2023/10/05 04:58:21;;;;;;;7.80;2.10;;;;;;;;;;4940751;28;20098;-67
2023/10/05 05:01:18;;;;;;;7.53;1.90;;;;;;;;;;4940784;28;20078;-65
2023/10/05 05:03:55;;;;;;;5.72;1.77;;;;;;;;;;4956992;28;20062;-62
2023/10/05 05:06:22;;;;;;;10.67;2.00;;;;;;;;;;4955410;28;20058;-66
2023/10/05 05:08:50;;;;;;;11.55;2.10;;;;;;;;;;4962987;28;20070;-68
2023/10/05 05:11:20;;;;;;;8.40;2.17;;;;;;;;;;4950984;28;20066;-67
2023/10/05 05:13:47;;;;;;;9.90;2.00;;;;;;;;;;4942246;28;20046;-62
2023/10/05 05:16:16;;;;;;;10.48;2.35;;;;;;;;;;4953508;28;20079;-65
2023/10/05 05:18:42;;;;;;;14.30;4.05;;;;;;;;;;4957266;28;20062;-67
2023/10/05 05:21:11;;;;;;;15.73;3.15;;;;;;;;;;4956200;28;20055;-66
2023/10/05 05:23:39;;;;;;;10.25;2.70;;;;;;;;;;4944605;28;20082;-64
2023/10/05 05:26:09;;;;;;;6.25;1.98;;;;;;;;;;4927185;28;20055;-66
2023/10/05 05:28:37;;;;;;;13.75;3.05;;;;;;;;;;4944823;28;20054;-66
2023/10/05 05:31:14;;;;;;;9.77;3.20;;;;;;;;;;4950699;28;20131;-65
2023/10/05 05:33:44;;;;;;;11.27;3.60;;;;;;;;;;4944262;28;20302;-72
2023/10/05 05:36:12;;;;;;;8.32;2.80;;;;;;;;;;4960829;28;20071;-65
2023/10/05 05:38:41;;;;;;;5.72;2.75;;;;;;;;;;4894867;28;20058;-68
2023/10/05 05:41:12;;;;;;;12.10;2.67;;;;;;;;;;4927364;28;20058;-68
2023/10/05 05:43:40;;;;;;;13.07;2.78;;;;;;;;;;4942686;28;20055;-67
2023/10/05 05:46:12;;;;;;;8.60;2.60;;;;;;;;;;4938826;28;20371;-66
2023/10/05 05:48:39;;;;;;;10.82;2.08;;;;;;;;;;4910523;28;20307;-65
2023/10/05 05:51:13;;;;;;;8.77;2.17;;;;;;;;;;4950877;28;20174;-65
2023/10/05 05:53:40;;;;;;;10.15;2.97;;;;;;;;;;4947821;28;20066;-66
2023/10/05 05:56:07;;;;;;;15.90;2.42;;;;;;;;;;4947349;28;20198;-66
2023/10/05 05:58:34;;;;;;;11.18;2.40;;;;;;;;;;4948637;28;20065;-67
2023/10/05 06:01:01;;;;;;;12.85;3.92;;;;;;;;;;4953342;28;20082;-66
2023/10/05 06:03:28;;;;;;;10.00;3.42;;;;;;;;;;4958203;28;20058;-63
2023/10/05 06:05:55;;;;;;;11.70;3.58;;;;;;;;;;4961477;28;20098;-65
2023/10/05 06:08:23;;;;;;;8.15;2.75;;;;;;;;;;4956851;28;20078;-63
2023/10/05 06:10:51;;;;;;;11.00;2.65;;;;;;;;;;4957087;28;20073;-62
2023/10/05 06:13:19;;;;;;;6.20;2.03;;;;;;;;;;4945812;28;20058;-66
2023/10/05 06:15:46;;;;;;;12.15;2.40;;;;;;;;;;4959571;28;20307;-65
2023/10/05 06:18:16;;;;;;;6.28;2.03;;;;;;;;;;4956463;28;20086;-67
2023/10/05 06:20:46;;;;;;;6.80;2.22;;;;;;;;;;4961076;28;20055;-63
2023/10/05 06:23:13;;;;;;;7.65;2.22;;;;;;;;;;4959703;28;20110;-65
2023/10/05 06:25:44;;;;;;;19.42;2.30;;;;;;;;;;4960351;28;20125;-67
2023/10/05 06:28:12;;;;;;;11.70;2.40;;;;;;;;;;4955062;28;20058;-63
2023/10/05 06:30:42;;;;;;;9.77;2.23;;;;;;;;;;4960366;28;20084;-63
2023/10/05 06:33:09;;;;;;;10.77;2.30;;;;;;;;;;4936565;28;20290;-67
2023/10/05 06:35:36;;;;;;;12.38;2.95;;;;;;;;;;4961207;28;20085;-66
2023/10/05 06:38:03;;;;;;;10.18;2.35;;;;;;;;;;4956889;28;20125;-69
2023/10/05 06:40:30;;;;;;;8.30;1.90;;;;;;;;;;4963491;28;20058;-64
2023/10/05 06:43:00;;;;;;;17.08;2.97;;;;;;;;;;4953114;28;20137;-65
2023/10/05 06:45:28;;;;;;;9.35;2.92;;;;;;;;;;4961257;28;20055;-67
2023/10/05 06:47:56;;;;;;;9.30;2.55;;;;;;;;;;4943581;28;20066;-68
2023/10/05 06:50:23;;;;;;;13.47;4.13;;;;;;;;;;4957969;28;20054;-66
2023/10/05 06:52:49;;;;;;;15.32;4.20;;;;;;;;;;4959392;28;20320;-64
2023/10/05 06:55:18;;;;;;;10.63;2.45;;;;;;;;;;4956202;28;20054;-66
2023/10/05 06:57:45;;;;;;;7.82;2.83;;;;;;;;;;4958817;28;20050;-64
2023/10/05 07:00:20;;;;;;;9.18;2.45;;;;;;;;;;4963227;28;20133;-61
2023/10/05 07:02:47;;;;;;;10.73;2.58;;;;;;;;;;4960137;28;20062;-64
2023/10/05 07:05:15;;;;;;;10.43;2.43;;;;;;;;;;4957647;28;20146;-66
2023/10/05 07:07:42;;;;;;;9.73;2.03;;;;;;;;;;4959918;28;20302;-63
2023/10/05 07:10:13;;;;;;;6.82;2.15;;;;;;;;;;4956414;28;20054;-67
2023/10/05 07:12:41;;;;;;;9.95;2.38;;;;;;;;;;4961645;28;20061;-66
2023/10/05 07:15:10;;;;;;;11.90;2.50;;;;;;;;;;4964328;28;20058;-63
2023/10/05 07:17:38;;;;;;;5.55;1.98;;;;;;;;;;4962927;28;20070;-64
2023/10/05 07:20:11;;;;;;;11.07;2.45;;;;;;;;;;4927291;28;20050;-64
2023/10/05 07:22:44;;;;;;;7.38;2.13;;;;;;;;;;4959649;28;20082;-66
2023/10/05 07:25:11;;;;;;;8.27;2.10;;;;;;;;;;4959173;28;20102;-61
2023/10/05 07:27:39;;;;;;;13.52;2.55;;;;;;;;;;4961065;28;20061;-62
2023/10/05 07:30:08;;;;;;;10.27;2.40;;;;;;;;;;4949146;28;20061;-68
2023/10/05 07:32:46;;;;;;;5.95;2.00;;;;;;;;;;4959168;28;20145;-65
2023/10/05 07:35:13;;;;;;;7.35;2.42;;;;;;;;;;4954888;28;20058;-65
2023/10/05 07:37:41;;;;;;;7.47;2.28;;;;;;;;;;4962741;28;20062;-62
2023/10/05 07:40:13;;;;;;;11.88;2.00;;;;;;;;;;4927227;28;20061;-68
2023/10/05 07:42:44;;;;;;;9.63;2.40;;;;;;;;;;4970844;28;20054;-67
2023/10/05 07:45:13;;;;;;;12.68;2.53;;;;;;;;;;4958463;28;20160;-66
2023/10/05 07:47:46;;;;;;;12.32;2.20;;;;;;;;;;4961933;28;20070;-65
2023/10/05 07:50:14;;;;;;;21.48;2.78;;;;;;;;;;4933766;28;20272;-64
2023/10/05 07:52:48;;;;;;;13.32;2.20;;;;;;;;;;4956893;28;20109;-65
2023/10/05 07:55:14;;;;;;;9.00;1.80;;;;;;;;;;4960855;28;20055;-61
2023/10/05 07:58:02;;;;;;;8.50;1.90;;;;;;;;;;4962767;28;20063;-66
2023/10/05 08:00:29;;;;;;;6.65;1.95;;;;;;;;;;4919349;28;20094;-62
2023/10/05 08:02:57;;;;;;;8.45;2.47;;;;;;;;;;4932900;28;20158;-66
2023/10/05 08:05:26;;;;;;;11.20;2.10;;;;;;;;;;4939094;28;20059;-65
2023/10/05 08:07:54;;;;;;;9.80;2.15;;;;;;;;;;4939420;28;20059;-65
2023/10/05 08:10:23;;;;;;;7.13;2.08;;;;;;;;;;4901224;28;20205;-66
2023/10/05 08:12:50;;;;;;;7.80;1.92;;;;;;;;;;4946464;28;20133;-65
2023/10/05 08:15:18;;;;;;;11.63;2.17;;;;;;;;;;4949018;28;20079;-62
2023/10/05 08:17:45;;;;;;;9.70;2.25;;;;;;;;;;4940143;28;20066;-64
2023/10/05 08:20:17;;;;;;;9.05;2.30;;;;;;;;;;4885917;28;20055;-64
2023/10/05 08:22:46;;;;;;;13.63;4.28;;;;;;;;;;4919844;29;20133;-66
2023/10/05 08:25:16;;;;;;;19.38;4.65;;;;;;;;;;4950727;28;20129;-64
2023/10/05 08:27:43;;;;;;;8.45;2.65;;;;;;;;;;4939081;28;20090;-66
2023/10/05 08:30:11;;;;;;;13.18;2.30;;;;;;;;;;4902515;28;20047;-65
2023/10/05 08:32:39;;;;;;;9.48;2.22;;;;;;;;;;4935389;28;20114;-66
2023/10/05 08:35:14;;;;;;;11.73;2.65;;;;;;;;;;4935317;28;20074;-66
2023/10/05 08:37:47;;;;;;;9.68;2.40;;;;;;;;;;4940805;28;20085;-62
2023/10/05 08:40:30;;;;;;;16.63;2.45;;;;;;;;;;4915227;28;20059;-66
2023/10/05 08:43:08;;;;;;;10.02;2.60;;;;;;;;;;4933138;28;20150;-67
2023/10/05 08:45:45;;;;;;;;;;;;;;;;;;4939887;28;20059;-67
2023/10/05 08:48:19;;;;;;;6.63;2.05;;;;;;;;;;4919629;28;19926;-63
2023/10/05 08:50:52;;;;;;;10.98;1.98;;;;;;;;;;4929552;28;20146;-63
2023/10/05 08:53:23;;;;;;;8.65;2.08;;;;;;;;;;4940000;28;20054;-63
2023/10/05 08:55:52;;;;;;;9.25;1.90;;;;;;;;;;4940464;28;20075;-66
2023/10/05 08:58:20;;;;;;;6.50;1.90;;;;;;;;;;4929650;28;20063;-64
2023/10/05 09:00:48;;;;;;;14.73;1.85;;;;;;;;;;4922519;28;20086;-64
2023/10/05 09:06:20;;;;;;;6.85;2.20;;;;;;;;;;5139206;27;20407;-65
2023/10/05 09:08:53;;;;;;;8.95;2.03;;;;;;;;;;5075934;27;20051;-67
2023/10/05 09:11:31;;;;;;;8.50;2.15;;;;;;;;;;5099546;27;20063;-63
2023/10/05 09:14:12;;;;;;;8.80;2.10;;;;;;;;;;5054578;28;20061;-67
2023/10/05 09:16:42;;;;;;;9.60;2.00;;;;;;;;;;5052836;28;20124;-64
2023/10/05 09:19:12;;;;;;;6.65;1.90;;;;;;;;;;5029812;28;20049;-66
2023/10/05 09:21:50;;;;;;;12.73;2.00;;;;;;;;;;5036474;28;20106;-65
2023/10/05 09:24:21;;;;;;;8.65;2.03;;;;;;;;;;5036324;28;20048;-64
2023/10/05 09:27:12;;;;;;;9.68;1.80;;;;;;;;;;5050503;28;20049;-63
2023/10/05 09:29:40;;;;;;;14.25;2.30;;;;;;;;;;5064164;28;20067;-60
2023/10/05 09:32:22;;;;;;;8.43;1.98;;;;;;;;;;5075477;27;20053;-65
2023/10/05 09:34:50;;;;;;;7.53;1.90;;;;;;;;;;5067133;27;20086;-62
2023/10/05 09:37:23;;;;;;;9.55;2.05;;;;;;;;;;5089801;27;20055;-68
2023/10/05 09:39:53;;;;;;;8.35;1.75;;;;;;;;;;5064393;27;20055;-62
2023/10/05 09:42:25;;;;;;;16.95;4.72;;;;;;;;;;5070506;28;20056;-64
2023/10/05 09:44:53;;;;;;;18.60;3.97;;;;;;;;;;5065978;27;20106;-64
2023/10/05 09:47:26;;;;;;;10.05;1.92;;;;;;;;;;5073193;28;20056;-61
2023/10/05 09:49:59;;;;;;;8.30;1.83;;;;;;;;;;5058418;28;20044;-62
2023/10/05 09:52:34;;;;;;;8.27;1.65;;;;;;;;;;5073449;27;20086;-62
2023/10/05 09:55:08;;;;;;;11.43;2.10;;;;;;;;;;5064138;27;20294;-65
2023/10/05 09:57:41;;;;;;;5.68;1.60;;;;;;;;;;5090130;27;20048;-66
2023/10/05 10:00:12;;;;;;;11.68;1.95;;;;;;;;;;5065908;27;20095;-64
2023/10/05 10:02:41;;;;;;;13.20;1.70;;;;;;;;;;5092289;27;20060;-65
2023/10/05 10:05:30;;;;;;;9.15;1.42;;;;;;;;;;5123373;27;20056;-65
2023/10/05 10:08:08;;;;;;;6.22;1.77;;;;;;;;;;5108474;27;20076;-67
2023/10/05 10:10:36;;;;;;;7.32;1.77;;;;;;;;;;5078645;27;20058;-65
2023/10/05 10:13:10;;;;;;;7.15;1.90;;;;;;;;;;5073286;27;20133;-64
2023/10/05 10:15:39;;;;;;;8.70;1.98;;;;;;;;;;5069295;28;20105;-65
2023/10/05 10:18:14;;;;;;;;;;;;;;;;;;5062970;27;20056;-65
2023/10/05 10:20:45;;;;;;;4.30;1.42;;;;;;;;;;5055394;28;20033;-64
2023/10/05 10:23:19;;;;;;;12.95;1.75;;;;;;;;;;5057482;28;20075;-68
2023/10/05 10:25:50;;;;;;;11.93;1.55;;;;;;;;;;5060981;28;20051;-61
2023/10/05 10:28:24;;;;;;;10.05;2.00;;;;;;;;;;5057160;28;20138;-64
2023/10/05 10:31:13;;;;;;;10.02;2.25;;;;;;;;;;5049238;27;20044;-64
2023/10/05 10:33:41;;;;;;;11.00;1.85;;;;;;;;;;5059094;28;20065;-66
2023/10/05 10:36:19;;;;;;;8.43;1.80;;;;;;;;;;5059116;28;20040;-64
2023/10/05 10:38:51;;;;;;;16.65;3.85;;;;;;;;;;5053760;27;20051;-65
2023/10/05 10:41:21;;;;;;;12.55;2.97;;;;;;;;;;5066414;28;20076;-67
2023/10/05 10:43:52;;;;;;;14.07;2.28;;;;;;;;;;5056340;28;20053;-67
2023/10/05 10:46:20;;;;;;;13.15;1.90;;;;;;;;;;5068410;27;20135;-64
2023/10/05 10:48:53;;;;;;;9.67;1.77;;;;;;;;;;5033885;27;20061;-62
2023/10/05 10:51:22;;;;;;;7.55;1.90;;;;;;;;;;5072082;28;20124;-62
2023/10/05 10:53:55;;;;;;;;;;;;;;;;;;5058786;28;20144;-63
2023/10/05 10:56:27;;;;;;;7.68;1.80;;;;;;;;;;5057246;28;19999;-64
2023/10/05 10:59:09;;;;;;;7.35;1.88;;;;;;;;;;5043227;28;20063;-64
2023/10/05 11:01:41;;;;;;;9.68;2.28;;;;;;;;;;5038702;28;20052;-63
2023/10/05 11:04:23;;;;;;;13.00;2.13;;;;;;;;;;5039511;28;20061;-64
2023/10/05 11:06:51;;;;;;;6.75;2.17;;;;;;;;;;5034135;28;20068;-67
2023/10/05 11:09:29;;;;;;;7.50;2.30;;;;;;;;;;5029276;28;20052;-63
2023/10/05 11:11:56;;;;;;;;;;;;;;;;;;5047695;28;20148;-62
2023/10/05 11:14:31;;;;;;;10.80;3.47;;;;;;;;;;5038865;28;19974;-65
2023/10/05 11:17:00;;;;;;;9.32;2.25;;;;;;;;;;5030368;28;20227;-66
2023/10/05 11:19:37;;;;;;;12.10;2.13;;;;;;;;;;5033877;28;20130;-63
2023/10/05 11:22:07;;;;;;;29.92;14.52;;;;;;;;;;5042547;28;20124;-65
2023/10/05 11:24:39;;;;;;;12.68;2.97;;;;;;;;;;5040000;28;20065;-62
2023/10/05 11:27:15;;;;;;;10.10;2.35;;;;;;;;;;5035345;27;20055;-64
2023/10/05 11:29:48;;;;;;;8.82;2.10;;;;;;;;;;5056162;28;20112;-61
2023/10/05 11:32:20;;;;;;;6.32;1.95;;;;;;;;;;5063444;28;20056;-62
2023/10/05 11:34:54;;;;;;;10.85;2.25;;;;;;;;;;5055826;28;20056;-65
2023/10/05 11:37:25;;;;;;;6.10;1.88;;;;;;;;;;5059816;28;20052;-63
2023/10/05 11:39:58;;;;;;;14.00;1.98;;;;;;;;;;5059890;28;20071;-62
2023/10/05 11:42:25;;;;;;;10.65;2.17;;;;;;;;;;5082158;28;20048;-65
2023/10/05 11:44:55;;;;;;;9.35;2.45;;;;;;;;;;5070528;28;20244;-62
2023/10/05 11:47:32;;;;;;;7.40;2.05;;;;;;;;;;5060681;28;20061;-65
2023/10/05 11:50:05;;;;;;;10.15;1.80;;;;;;;;;;5071225;28;20056;-60
2023/10/05 11:52:32;;;;;;;8.80;1.75;;;;;;;;;;5059460;28;20068;-64
2023/10/05 11:55:01;;;;;;;9.75;2.35;;;;;;;;;;5052190;28;20068;-65
2023/10/05 11:57:29;;;;;;;;;;;;;;;;;;5058966;28;20060;-63
2023/10/05 11:59:59;;;;;;;13.68;1.88;;;;;;;;;;5044342;28;19966;-63
2023/10/05 12:02:30;;;;;;;7.72;1.67;;;;;;;;;;5059092;28;20048;-62
2023/10/05 12:04:57;;;;;;;11.38;2.55;;;;;;;;;;5054703;27;20155;-63
2023/10/05 12:07:25;;;;;;;11.15;1.80;;;;;;;;;;5056713;28;20052;-66
2023/10/05 12:09:52;;;;;;;11.93;2.30;;;;;;;;;;5051736;28;20056;-65
2023/10/05 12:12:23;;;;;;;6.47;1.65;;;;;;;;;;5044502;28;20114;-65
2023/10/05 12:14:53;;;;;;;8.65;1.65;;;;;;;;;;5032070;28;20076;-66
2023/10/05 12:17:21;;;;;;;9.75;1.67;;;;;;;;;;5037419;28;20053;-63
2023/10/05 12:19:51;;;;;;;5.77;1.77;;;;;;;;;;5025842;28;20061;-61
2023/10/05 12:22:21;;;;;;;6.55;1.52;;;;;;;;;;5058094;28;20055;-64
2023/10/05 12:24:50;;;;;;;8.77;1.70;;;;;;;;;;5048874;28;20155;-64
2023/10/05 12:27:20;;;;;;;9.88;1.67;;;;;;;;;;5074545;28;20055;-61
2023/10/05 12:29:52;;;;;;;9.80;1.80;;;;;;;;;;5059095;28;20052;-61
2023/10/05 12:32:21;;;;;;;11.13;1.90;;;;;;;;;;5052797;28;20041;-63
2023/10/05 12:34:48;;;;;;;5.32;1.38;;;;;;;;;;5053073;28;20064;-62
2023/10/05 12:37:17;;;;;;;9.52;1.48;;;;;;;;;;5056213;28;20051;-63
2023/10/05 12:39:45;;;;;;;9.30;1.58;;;;;;;;;;5007900;28;20052;-63
2023/10/05 12:42:16;;;;;;;15.83;1.60;;;;;;;;;;5047737;28;20206;-64
2023/10/05 12:44:47;;;;;;;8.43;1.52;;;;;;;;;;5052761;28;20064;-62
2023/10/05 12:47:16;;;;;;;14.07;4.57;;;;;;;;;;5054381;28;20058;-62
2023/10/05 12:49:42;;;;;;;13.88;3.92;;;;;;;;;;4996167;28;20060;-67
2023/10/05 12:52:09;;;;;;;10.18;1.83;;;;;;;;;;5057431;28;20060;-60
2023/10/05 12:54:39;;;;;;;5.60;1.23;;;;;;;;;;5073820;28;20057;-64
2023/10/05 12:57:10;;;;;;;8.13;1.42;;;;;;;;;;5068675;28;22578;-65
2023/10/05 12:59:37;;;;;;;15.10;1.77;;;;;;;;;;5047581;28;20047;-65
2023/10/05 13:02:14;;;;;;;5.45;1.30;;;;;;;;;;5057521;28;20084;-61
2023/10/05 13:04:45;;;;;;;7.45;1.23;;;;;;;;;;5051819;28;20057;-64
2023/10/05 13:07:16;;;;;;;11.23;1.45;;;;;;;;;;5069994;28;20052;-63
2023/10/05 13:09:43;;;;;;;5.43;1.58;;;;;;;;;;5062729;28;20088;-63
2023/10/05 13:12:12;;;;;;;7.35;1.65;;;;;;;;;;5056396;28;20053;-63
2023/10/05 13:14:42;;;;;;;6.90;1.60;;;;;;;;;;5056677;28;20091;-64
2023/10/05 13:17:11;;;;;;;2.88;0.90;;;;;;;;;;5054650;28;21226;-62
2023/10/05 13:19:41;;;;;;;11.90;1.52;;;;;;;;;;5030734;28;20136;-68
2023/10/05 13:22:11;;;;;;;7.63;1.38;;;;;;;;;;5063772;28;20152;-64
2023/10/05 13:24:40;;;;;;;6.65;1.35;;;;;;;;;;5054857;28;20069;-64
2023/10/05 13:27:08;;;;;;;7.80;1.45;;;;;;;;;;5053876;28;20052;-65
2023/10/05 13:29:42;;;;;;;5.18;1.20;;;;;;;;;;5048323;28;20076;-62
2023/10/05 13:32:12;;;;;;;9.35;1.63;;;;;;;;;;5069069;27;20052;-61
2023/10/05 13:34:39;;;;;;;6.75;1.70;;;;;;;;;;5055221;28;20144;-64
2023/10/05 13:37:08;;;;;;;11.88;1.50;;;;;;;;;;5051945;28;20056;-64
2023/10/05 13:39:37;;;;;;;6.35;1.20;;;;;;;;;;5054211;28;20052;-66
2023/10/05 13:42:09;;;;;;;7.35;1.50;;;;;;;;;;5057109;28;20306;-62
2023/10/05 13:44:36;;;;;;;6.22;1.35;;;;;;;;;;5064640;28;20059;-62
2023/10/05 13:47:03;;;;;;;5.35;1.30;;;;;;;;;;5058131;28;20124;-65
2023/10/05 13:49:32;;;;;;;8.07;1.75;;;;;;;;;;5030012;28;20080;-62
2023/10/05 13:51:59;;;;;;;7.00;1.45;;;;;;;;;;5052237;28;20136;-63
2023/10/05 13:54:25;;;;;;;5.28;1.20;;;;;;;;;;5062803;28;20137;-62
2023/10/05 13:56:54;;;;;;;7.97;1.83;;;;;;;;;;5057442;28;20129;-62
2023/10/05 13:59:26;;;;;;;7.68;1.30;;;;;;;;;;5045835;28;20098;-63
2023/10/05 14:01:59;;;;;;;6.60;1.48;;;;;;;;;;5051318;28;20080;-65
2023/10/05 14:04:30;;;;;;;3.90;1.33;;;;;;;;;;5040249;28;20048;-64
2023/10/05 14:06:58;;;;;;;6.63;1.38;;;;;;;;;;5050366;28;20095;-62
2023/10/05 14:09:27;;;;;;;4.07;1.30;;;;;;;;;;5040440;28;20063;-59
2023/10/05 14:11:55;;;;;;;6.68;1.30;;;;;;;;;;5075083;28;20052;-62
2023/10/05 14:14:21;;;;;;;7.30;1.40;;;;;;;;;;5059321;28;20161;-60
2023/10/05 14:16:50;;;;;;;6.63;1.60;;;;;;;;;;5070168;28;20102;-62
2023/10/05 14:19:17;;;;;;;;;;;;;;;;;;5053625;28;20064;-62
2023/10/05 14:21:44;;;;;;;7.53;2.63;;;;;;;;;;5053424;28;19929;-62
2023/10/05 14:24:13;;;;;;;7.85;1.60;;;;;;;;;;5039727;28;20121;-61
2023/10/05 14:26:44;;;;;;;;;;;;;;;;;;5038183;28;20060;-64
2023/10/05 14:29:13;;;;;;;8.20;1.35;;;;;;;;;;5050308;28;20019;-62
2023/10/05 14:31:41;;;;;;;;;;;;;;;;;;5057197;28;20060;-63
2023/10/05 14:34:09;;;;;;;6.00;1.52;;;;;;;;;;5039332;28;19962;-64
2023/10/05 14:36:37;;;;;;;5.20;1.42;;;;;;;;;;5056531;28;20045;-63
2023/10/05 14:39:18;;;;;;;5.03;1.52;;;;;;;;;;5019926;28;20099;-62
2023/10/05 14:41:44;;;;;;;8.10;1.42;;;;;;;;;;5058340;28;20041;-61
2023/10/05 14:44:13;;;;;;;7.82;1.50;;;;;;;;;;5075495;28;20045;-62
2023/10/05 14:46:40;;;;;;;9.88;1.52;;;;;;;;;;5074778;28;20135;-62
2023/10/05 14:49:07;;;;;;;6.18;1.15;;;;;;;;;;5033179;28;20054;-61
2023/10/05 14:51:34;;;;;;;9.45;2.40;;;;;;;;;;5037790;28;20137;-62
2023/10/05 14:54:01;;;;;;;4.30;1.42;;;;;;;;;;5037539;28;20148;-62
2023/10/05 14:56:28;;;;;;;3.15;1.20;;;;;;;;;;5041554;28;20064;-62
2023/10/05 14:58:54;;;;;;;7.13;1.25;;;;;;;;;;5010286;28;20049;-61
2023/10/05 15:01:23;;;;;;;7.20;1.15;;;;;;;;;;5037745;28;20085;-64
2023/10/05 15:03:49;;;;;;;7.32;1.35;;;;;;;;;;5039249;28;20057;-62